Christophe Picard

Olheiro - Stade Rennais
8 Jan 2028
Sábado
Processo

Personalidade

Adaptabilidade (4) Ambição (18) Controvérsia (14) Lealdade (14) Pressão (13) Profissionalismo (3) Espírito Esportivo (13) Temperamento (2)

Perfil

Estilo de Treinamento Democrático
Licença Continental Pro
Determinação 7
Gestão de Pessoas 7
Motivação 8
Disciplina 5
Satisfação no Trabalho
100%
Fadiga
0%
Função Olheiro
Salário 116.0K p/s
Contrato 14.03.2028

Desempenho

Comportamento Bom
Eficácia do Treinamento
55%
Desenvolvimento do Jogador
65%
Prevenção de Lesões
75%
Implementação Tática
50%

Eventos Recentes

Participou de uma reunião de recrutamento agora
Participou de uma reunião de recrutamento agora
Recomendou um alvo de transferência agora
Participou de uma reunião de recrutamento agora
Recomendou um alvo de transferência agora
Recomendou um alvo de transferência agora
Negociação de contrato iniciada agora
Negociação de contrato iniciada agora

Monitorando agora

173
Jogador Clube Status Habilidade Confiança Observado Última observação Último voto
Youri Baas Ajax Relatório pronto 144 / 147 69% 1 01.01.2028 -
Mike Penders Chelsea Ativo 144 / 146 40% 2 31.12.2027 -
Sławomir Abramowicz Jagiellonia Ativo 141 / 133 40% 1 31.12.2027 -
Vladislav Torop CSKA Moscow Ativo 130 / 140 40% 1 31.12.2027 -
Oskar Spiten-Nysæter Molde Ativo 112 / 124 40% 7 30.12.2027 -
Rayane Bounida Ajax Ativo 142 / 141 40% 3 30.12.2027 -
Troy Nyhammer Tromso Ativo 108 / 118 40% 3 30.12.2027 -
Cheveyo Tsawa Standard Liege Ativo 131 / 125 40% 2 29.12.2027 -
Kauã Moraes Cruzeiro Ativo 132 / 129 40% 2 29.12.2027 -
Louis Leroux FC Nantes Ativo 136 / 139 40% 2 29.12.2027 -
Lewis Miley Birmingham Ativo 143 / 153 40% 3 28.12.2027 -
Esquerdinha Oldham Athletic Ativo 122 / 123 40% 1 28.12.2027 -
Mihajlo Cvetković Anderlecht Ativo 131 / 132 40% 6 26.12.2027 -
Nicolás Azambuja Danubio Ativo 120 / 130 40% 6 26.12.2027 -
Warren Zaïre-Emery Paris Saint-Germain Ativo 169 / 163 40% 10 26.12.2027 -
Biel La Equidad Ativo 131 / 124 40% 3 26.12.2027 -
Ilhan Fakili Kasimpasa Ativo 120 / 119 40% 3 26.12.2027 -
Bade Aluko Accrington Stanley Ativo 127 / 127 40% 2 26.12.2027 -
Senny Mayulu Paris Saint-Germain Ativo 156 / 154 40% 5 24.12.2027 -
Rio Ngumoha AFC Wimbledon Ativo 136 / 144 40% 3 24.12.2027 -
Babis Kostoulas Aston Villa Ativo 147 / 145 40% 4 23.12.2027 -
Jayden Danns Wigan Athletic Ativo 134 / 141 40% 1 23.12.2027 -
Eli Junior Kroupi Bournemouth Ativo 139 / 146 40% 5 22.12.2027 -
Mateo Aguiar Defensa y Justicia Ativo 114 / 119 40% 5 22.12.2027 -
Ethan Mbappé LOSC Lille Ativo 141 / 138 62% 8 21.12.2027 Aprovar
Dayann Methalie Everton Ativo 130 / 139 40% 3 21.12.2027 -
Rafael Lobato Rio Ave Ativo 127 / 126 40% 1 21.12.2027 -
Ayyoub Bouaddi Blackpool Ativo 146 / 148 40% 7 20.12.2027 -
Khalis Merah Olympique Lyonnais Ativo 129 / 140 40% 5 20.12.2027 -
Juan Manuel Villalba Boca Juniors Ativo 109 / 122 40% 4 18.12.2027 -
Guy Noël Zohouri Le Havre AC Ativo 115 / 124 40% 4 18.12.2027 -
Patrick Guillaume Chamois Niortais Ativo 117 / 127 40% 4 18.12.2027 -
Mathys Angély VfL Wolfsburg Ativo 117 / 128 40% 4 18.12.2027 -
Lucas Høgsberg Paris Saint-Germain Ativo 138 / 148 40% 1 18.12.2027 -
Julien Duranville Olympique Lyonnais Ativo 139 / 140 40% 2 16.12.2027 -
Charles Fontaine Bayern Munich Ativo 127 / 136 40% 5 15.12.2027 -
Amine Boukamir Charleroi Ativo 107 / 106 40% 9 15.12.2027 -
Luis Otávio Toronto FC Ativo 105 / 119 40% 2 15.12.2027 -
Mateo Silvetti Inter Miami CF Ativo 127 / 129 40% 5 13.12.2027 -
Facundo Balatti Penarol Ativo 92 / 115 40% 2 13.12.2027 -
Josh Nichols Tranmere Rovers Ativo 121 / 126 40% 1 13.12.2027 -
Agustín Medina Lanús Ativo 110 / 130 40% 4 11.12.2027 -
Oumar Camara Vitoria Guimaraes Ativo 121 / 130 40% 1 11.12.2027 -
Kauã Elias Shakhtar Ativo 147 / 142 40% 1 09.12.2027 -
Fodé Sylla Sion Ativo 112 / 129 40% 9 07.12.2027 -
Sidiki Chérif Coventry City Ativo 134 / 143 40% 4 07.12.2027 -
Ryan McAidoo Accrington Stanley Ativo 124 / 129 40% 2 04.12.2027 -
Joseph Dupuis Tours Ativo 113 / 111 40% 1 04.12.2027 -
Sergio Castillo Cortulua Ativo 113 / 115 40% 6 03.12.2027 -
Axel Tape Bayer Leverkusen Ativo 125 / 136 40% 6 02.12.2027 -
Bastien Meupiyou Alverca Ativo 135 / 133 40% 1 30.11.2027 -
Noam Obougou Jacquet Le Havre AC Ativo 114 / 123 40% 7 26.11.2027 -
Bazoumana Touré Newcastle United Ativo 142 / 153 40% 2 26.11.2027 -
Sebastián Ramírez America de Cali Ativo 95 / 108 40% 1 26.11.2027 -
David Martínez Toronto FC Ativo 127 / 125 40% 3 25.11.2027 -
Mateo Peralta Danubio Ativo 115 / 116 40% 8 24.11.2027 -
Joseph Le Roux Lazio Ativo 115 / 123 40% 4 21.11.2027 -
Kaick FC Dallas Ativo 115 / 113 40% 2 12.11.2027 -
Honest Ahanor Atalanta Ativo 136 / 145 40% 1 11.11.2027 -
Archie Gray Leicester City Ativo 156 / 155 40% 1 08.11.2027 -
Nahuel Leivas Montevideo City Torque Ativo 97 / 110 40% 4 06.11.2027 -
Mfundo Vilakazi Kaizer Chiefs Ativo 113 / 130 40% 3 06.11.2027 -
Rémi Himbert AC Ajaccio Ativo 115 / 121 40% 1 02.11.2027 -
Robinio Vaz AS Roma Ativo 114 / 128 40% 2 29.10.2027 -
Mads Bomholt Lillestrom Ativo 110 / 119 40% 1 22.10.2027 -
Roger Fernandes Al-Ittihad Ativo 156 / 140 40% 1 21.10.2027 -
Halam Loboa Independiente Medellin Ativo 108 / 133 40% 5 16.10.2027 -
Diogo Guzmán Montevideo City Torque Ativo 101 / 116 40% 1 09.10.2027 -
Romelu Kompany KV Oostende Ativo 135 / 139 40% 3 07.10.2027 -
Jan Virgili Club Brugge Ativo 136 / 142 40% 1 04.10.2027 -
Othmane Maamma Watford Ativo 133 / 137 40% 1 29.09.2027 -
Thomas Alderweireld Dijon Ativo 140 / 135 40% 1 16.09.2027 -
Facundo Gulli San Lorenzo Ativo 121 / 131 40% 2 14.09.2027 -
Alan Morinigo Olimpia Ativo 102 / 119 40% 2 09.09.2027 -
Pape Diong Westerlo Ativo 110 / 125 40% 1 07.09.2027 -
Ibrahim Coulibaly Clermont Foot Ativo 117 / 118 40% 1 06.09.2027 -
Milan Roganović Racing Genk Ativo 116 / 121 40% 1 30.08.2027 -
Marc Bernal Valladolid Ativo 144 / 151 40% 1 30.08.2027 -
Victor Aznar Cádiz Ativo 131 / 132 40% 1 23.08.2027 -
Santino Barbi Deportivo La Coruña Ativo 114 / 125 40% 1 23.08.2027 -
Lucas Bergström Mallorca Ativo 127 / 135 40% 1 20.08.2027 -
Kaique Sporting CP Ativo 132 / 133 40% 1 20.08.2027 -
Edoardo Motta Lazio Ativo 139 / 136 40% 1 09.08.2027 -
Zion Suzuki Aston Villa Ativo 145 / 152 40% 1 02.08.2027 -
André Gomes Casa Pia Ativo 140 / 134 40% 1 26.07.2027 -
Aitor Fraga Valencia Ativo 141 / 135 40% 2 19.07.2027 -
Takumi Minamino Monaco Ativo 143 / 139 62% 1 19.07.2027 -
Radek Vítek Middlesbrough Ativo 137 / 145 40% 1 28.06.2027 -
Dejan Kulusevski Tottenham Ativo 165 / 165 95% 1 01.06.2027 Aprovar
Konstantin Tyukavin Arsenal Negociando 132 / 133 66% 1 01.06.2027 -
Mao Hosoya Manchester City Negociando 134 / 135 67% 1 01.06.2027 Aprovar
José Paradela Cerro Porteno Ativo 137 / 137 66% 1 01.06.2027 Aprovar
Federico Chiesa Tottenham Ativo 155 / 156 40% 4 31.05.2027 -
Thiago Brentford Ativo 143 / 147 40% 2 31.05.2027 -
Andreas Jungdal Westerlo Ativo 128 / 120 40% 5 30.05.2027 -
Mads Hermansen West Ham United Ativo 142 / 138 40% 1 30.05.2027 -
Jean-Philippe Mateta Crystal Palace Ativo 147 / 147 40% 8 27.05.2027 -
Taiwo Awoniyi Coventry City Ativo 138 / 136 40% 4 27.05.2027 -
Dango Ouattara Brentford Ativo 145 / 149 40% 3 26.05.2027 -
Guillaume Restes Toulouse FC Ativo 139 / 142 40% 1 26.05.2027 -
Kevin Schade Brentford Ativo 156 / 153 40% 3 24.05.2027 -
Rafael Leão Galatasaray Ativo 148 / 156 40% 2 24.05.2027 -
Christian Pulisic AC Milan Ativo 163 / 162 40% 1 23.05.2027 -
Alkalifa Coulibaly Onze Createurs Ativo 94 / 105 40% 2 22.05.2027 -
Gianluca Scamacca Atalanta Ativo 149 / 148 40% 2 22.05.2027 -
Nathan Bishop AFC Wimbledon Ativo 101 / 104 40% 1 22.05.2027 -
Robin Risser RC Lens Ativo 149 / 141 40% 2 21.05.2027 -
George Hirst Stoke City Ativo 127 / 135 40% 2 19.05.2027 -
Ansu Fati Monaco Ativo 149 / 141 40% 5 18.05.2027 -
Kerem Aktürkoğlu Fenerbahce Ativo 150 / 145 40% 2 17.05.2027 -
João Félix Aston Villa Ativo 158 / 157 40% 1 15.05.2027 -
Dominic Solanke Tottenham Ativo 143 / 150 40% 3 14.05.2027 -
Wilson Isidor Sunderland Ativo 130 / 131 40% 2 14.05.2027 -
Kostantis Tzolakis Hull City Ativo 144 / 147 40% 1 14.05.2027 Mais informações
Charles De Ketelaere Atalanta Ativo 156 / 155 40% 2 12.05.2027 -
Tammy Abraham Aston Villa Ativo 136 / 141 40% 1 11.05.2027 -
Leo Kokubo Sint-Truiden Ativo 116 / 118 40% 4 10.05.2027 -
Igor Paixão Olympique de Marseille Ativo 149 / 145 40% 2 10.05.2027 -
Max Weiß Wolverhampton Ativo 129 / 132 40% 1 08.05.2027 -
Alexis Vega Famalicao Ativo 148 / 144 40% 2 06.05.2027 -
Pau Víctor Estrela da Amadora Ativo 132 / 134 40% 1 06.05.2027 -
Nacer Mignolet KV Oostende Ativo 133 / 138 40% 1 06.05.2027 -
Sindre Walle Egeli Nottingham Forest Ativo 139 / 138 40% 1 06.05.2027 -
Dávid Strelec Middlesbrough Ativo 143 / 139 40% 1 04.05.2027 -
Brennan Johnson Everton Ativo 148 / 144 40% 5 03.05.2027 -
Santiago Castro AS Roma Ativo 149 / 155 40% 1 02.05.2027 -
Killian Cahill Leyton Orient Ativo 112 / 113 40% 1 02.05.2027 -
Rodrigo Muniz Fulham Ativo 145 / 138 40% 3 30.04.2027 -
Liam Delap Nottingham Forest Ativo 153 / 147 40% 2 27.04.2027 -
Nicolas Jackson Aston Villa Ativo 151 / 149 40% 2 27.04.2027 -
Murphy Cooper Plymouth Argyle Ativo 108 / 116 40% 1 25.04.2027 -
Youssef En-Nesyri Al-Ittihad Ativo 138 / 137 40% 1 25.04.2027 -
Will Dennis Milton Keynes Dons Ativo 116 / 103 40% 1 23.04.2027 -
Carl Rushworth Coventry City Ativo 135 / 135 40% 2 20.04.2027 -
George Wickens Lincoln City Ativo 118 / 116 40% 2 16.04.2027 -
Yanis Begraoui Estoril Praia Ativo 139 / 134 40% 1 16.04.2027 -
Zakaria Aboukhlal Torino Ativo 146 / 135 40% 1 11.04.2027 -
Lautaro Martínez Inter Ativo 176 / 171 40% 1 07.04.2027 -
Yehvann Diouf OGC Nice Ativo 141 / 135 40% 3 03.04.2027 Observar
Đorđe Petrović Bournemouth Ativo 142 / 150 40% 2 03.04.2027 -
Zach Hemming Chesterfield Ativo 118 / 113 40% 1 02.04.2027 -
Beau Reus Waasland-Beveren Ativo 123 / 126 40% 2 01.04.2027 -
Filip Marschall Stevenage Ativo 103 / 117 40% 2 01.04.2027 -
Michael Cooper Sheffield United Ativo 124 / 131 40% 1 30.03.2027 -
Jordan Amissah Burton Albion Ativo 102 / 100 40% 2 21.03.2027 -
Felipe Parra Stade Brestois Ativo 133 / 128 40% 1 20.03.2027 -
Ryad Hachem FC Nantes Ativo 118 / 115 58% 1 25.01.2027 -
El Hadji Malick Diouf Brentford Ativo 149 / 146 40% 1 30.12.2026 -
Khéphren Thuram Juventus Ativo 155 / 155 40% 1 26.12.2026 -
Samuel Lino Flamengo Ativo 142 / 142 40% 1 26.12.2026 -
Berke Özer LOSC Lille Ativo 138 / 133 40% 1 25.12.2026 -
Kevin Fulham Ativo 156 / 146 40% 1 24.12.2026 -
Brent Gabriel Zulte Waregem Ativo 124 / 122 40% 1 22.12.2026 -
Matt O'Riley Brighton Ativo 138 / 143 40% 1 21.12.2026 -
N'Golo Traoré Stade Malien Ativo 95 / 101 40% 1 20.12.2026 -
Tiago Santos LOSC Lille Ativo 146 / 139 40% 1 17.12.2026 -
Marco Carnesecchi Torino Ativo 146 / 153 40% 1 16.12.2026 -
Hákon Arnar Haraldsson LOSC Lille Ativo 138 / 152 40% 2 12.12.2026 -
Roger François Udinese Ativo 140 / 146 40% 1 12.12.2026 -
Enzo Le Fée Sunderland Ativo 137 / 136 40% 1 08.12.2026 -
Khvicha Kvaratskhelia Inter Ativo 164 / 161 40% 3 04.12.2026 -
Manu Koné AS Roma Ativo 167 / 164 40% 2 27.11.2026 -
Roberto Fernández Braga Ativo 131 / 141 40% 1 26.11.2026 Mais informações
Osame Sahraoui LOSC Lille Ativo 145 / 141 40% 1 18.11.2026 -
Igor Jesus Nottingham Forest Ativo 140 / 146 40% 1 16.11.2026 -
Isaac Matondo Koper Ativo 110 / 106 40% 2 15.11.2026 -
Rafiu Durosinmi Racing Genk Ativo 130 / 133 40% 1 14.11.2026 -
Adrien Truffert Bournemouth Ativo 141 / 155 40% 1 13.11.2026 -
Claudy M'Buyi Rapid Wien Ativo 110 / 119 40% 1 12.11.2026 -
Pavel Šulc Olympique Lyonnais Ativo 128 / 139 40% 1 12.11.2026 -
Sofiane Diop OGC Nice Ativo 142 / 139 40% 1 10.11.2026 -
Pierre Kalulu Juventus Ativo 153 / 151 40% 1 08.11.2026 -
Hugo Ekitiké Liverpool Ativo 168 / 156 40% 1 01.08.2026 -